Time;durP1;ratioP1;P1;durP2;ratioP2;P2;SDS_P1;SDS_P2;PMS_P1;PMS_P2;Temp;Humidity;BMP_temperature;BMP_pressure;BME280_temperature;BME280_humidity;BME280_pressure;Samples;Min_cycle;Max_cycle;Signal;HPM_P1;HPM_P2
2023/07/18 00:01:38;;;;;;;5.47;3.65;;;;;;;16.49;100.00;98280.31;18430099;32;20437;-58
2023/07/18 00:11:42;;;;;;;3.40;2.70;;;;;;;16.39;100.00;98267.62;18430088;32;20068;-58
2023/07/18 00:21:44;;;;;;;4.70;3.20;;;;;;;16.30;100.00;98268.59;18431793;32;20095;-58
2023/07/18 00:31:48;;;;;;;6.97;3.30;;;;;;;16.14;100.00;98271.47;18441447;32;20046;-58
2023/07/18 00:41:52;;;;;;;4.70;3.33;;;;;;;16.05;100.00;98275.97;18441074;32;20038;-58
2023/07/18 00:51:56;;;;;;;6.97;3.23;;;;;;;15.98;100.00;98270.03;18439886;32;20136;-58
2023/07/18 01:01:59;;;;;;;4.35;2.87;;;;;;;15.87;100.00;98266.66;18433347;32;20453;-58
2023/07/18 01:12:02;;;;;;;5.40;3.55;;;;;;;15.80;100.00;98264.25;18438354;32;20042;-58
2023/07/18 01:22:06;;;;;;;5.82;2.87;;;;;;;15.73;100.00;98266.47;18438265;32;20358;-58
2023/07/18 01:32:09;;;;;;;7.18;3.65;;;;;;;15.63;100.00;98264.66;18436798;32;20117;-58
2023/07/18 01:42:12;;;;;;;4.37;3.25;;;;;;;15.55;100.00;98266.13;18436706;32;20125;-58
2023/07/18 01:52:14;;;;;;;4.45;3.08;;;;;;;15.46;100.00;98256.13;18436167;32;20425;-58
2023/07/18 02:02:17;;;;;;;4.18;3.08;;;;;;;15.41;100.00;98249.63;18421730;32;20053;-58
2023/07/18 02:12:20;;;;;;;6.37;3.47;;;;;;;15.44;100.00;98252.88;18420889;32;20045;-58
2023/07/18 02:22:23;;;;;;;4.62;3.28;;;;;;;15.43;100.00;98246.63;18420322;32;20057;-58
2023/07/18 02:32:26;;;;;;;4.65;3.35;;;;;;;15.39;100.00;98240.13;18433886;32;20150;-58
2023/07/18 02:42:31;;;;;;;3.75;2.78;;;;;;;15.35;100.00;98241.81;18432936;32;20084;-58
2023/07/18 02:52:34;;;;;;;3.60;3.00;;;;;;;15.33;100.00;98236.62;18429157;32;20372;-57
2023/07/18 03:02:37;;;;;;;4.70;3.30;;;;;;;15.31;100.00;98233.37;18429556;32;20093;-58
2023/07/18 03:12:40;;;;;;;6.87;3.40;;;;;;;15.20;100.00;98232.66;18431573;32;20054;-58
2023/07/18 03:22:47;;;;;;;5.23;2.93;;;;;;;15.08;100.00;98234.94;18431952;32;20327;-58
2023/07/18 03:44:00;;;;;;;6.07;2.97;;;;;;;14.87;100.00;98216.06;18427397;32;20038;-58
2023/07/18 03:54:03;;;;;;;5.25;2.62;;;;;;;14.69;100.00;98214.00;18416621;32;20433;-58
2023/07/18 04:04:07;;;;;;;4.40;2.33;;;;;;;14.65;100.00;98202.91;18441593;32;20072;-58
2023/07/18 04:14:10;;;;;;;5.10;2.53;;;;;;;14.61;100.00;98196.34;18415601;32;20073;-58
2023/07/18 04:24:12;;;;;;;3.72;2.40;;;;;;;14.46;100.00;98191.84;18427789;32;20064;-58
2023/07/18 04:34:16;;;;;;;3.75;2.80;;;;;;;14.42;100.00;98196.22;18441219;32;20042;-58
2023/07/18 04:44:19;;;;;;;4.82;2.62;;;;;;;14.45;100.00;98192.94;18433443;32;20053;-58
2023/07/18 04:54:21;;;;;;;5.50;2.70;;;;;;;14.72;100.00;98191.69;18439846;32;20049;-58
2023/07/18 05:04:25;;;;;;;2.60;2.10;;;;;;;15.04;100.00;98185.66;18439140;32;20049;-58
2023/07/18 05:14:28;;;;;;;2.63;2.30;;;;;;;15.24;100.00;98170.25;18438988;32;20096;-58
2023/07/18 05:24:31;;;;;;;2.97;2.25;;;;;;;15.50;100.00;98157.16;18437864;32;20053;-58
2023/07/18 05:34:34;;;;;;;3.30;2.03;;;;;;;15.90;100.00;98162.44;18437494;32;20068;-58
2023/07/18 05:44:37;;;;;;;3.70;2.47;;;;;;;16.09;100.00;98160.53;18436724;32;20389;-58
2023/07/18 05:54:40;;;;;;;2.83;1.90;;;;;;;16.38;100.00;98147.84;18436168;32;20050;-58
2023/07/18 06:04:43;;;;;;;3.53;2.05;;;;;;;16.71;100.00;98156.06;18435566;32;20064;-58
2023/07/18 06:14:46;;;;;;;2.30;1.60;;;;;;;17.05;100.00;98150.31;18435449;32;20069;-58
2023/07/18 06:24:49;;;;;;;4.40;1.80;;;;;;;17.38;100.00;98128.38;18434024;32;20049;-58
2023/07/18 06:34:52;;;;;;;3.20;1.83;;;;;;;17.77;100.00;98124.31;18427687;32;20402;-58
2023/07/18 06:44:59;;;;;;;2.60;1.90;;;;;;;18.21;100.00;98123.91;18433076;32;20091;-58
2023/07/18 06:55:04;;;;;;;2.53;1.87;;;;;;;18.65;100.00;98121.50;18406024;32;20049;-58
2023/07/18 07:05:08;;;;;;;3.87;2.50;;;;;;;19.03;100.00;98105.47;18432219;32;20111;-58
2023/07/18 07:15:11;;;;;;;2.90;2.17;;;;;;;19.45;100.00;98091.47;18431667;32;20430;-58
2023/07/18 07:25:14;;;;;;;6.25;3.00;;;;;;;19.82;100.00;98078.34;18417578;32;20060;-58
2023/07/18 07:35:19;;;;;;;7.67;3.53;;;;;;;20.21;100.00;98068.31;18424233;32;20118;-58
2023/07/18 07:45:22;;;;;;;5.07;3.03;;;;;;;20.59;100.00;98070.38;18443614;32;20101;-58
2023/07/18 07:55:27;;;;;;;6.28;3.28;;;;;;;20.95;100.00;98054.62;18443236;32;20049;-58
2023/07/18 08:05:31;;;;;;;10.60;3.53;;;;;;;21.36;100.00;98049.59;18442874;32;20057;-58
2023/07/18 08:15:34;;;;;;;4.05;2.78;;;;;;;21.76;100.00;98041.78;18442426;32;20441;-58
2023/07/18 08:25:38;;;;;;;6.15;2.83;;;;;;;22.20;100.00;98048.88;18437771;32;20053;-58
2023/07/18 08:35:42;;;;;;;4.78;3.10;;;;;;;22.66;100.00;98052.50;18424890;32;20058;-58
2023/07/18 08:45:47;;;;;;;5.40;3.70;;;;;;;22.92;95.59;98013.59;18439695;32;20090;-58
2023/07/18 08:55:50;;;;;;;6.45;3.72;;;;;;;23.35;99.41;98008.69;18440348;32;20398;-58
2023/07/18 09:05:54;;;;;;;5.87;3.97;;;;;;;23.82;92.82;97999.06;18439314;32;20132;-58
2023/07/18 09:15:58;;;;;;;6.65;3.67;;;;;;;24.37;90.50;97986.41;18424840;32;20057;-59
2023/07/18 09:26:07;;;;;;;5.45;3.10;;;;;;;25.19;90.06;97970.28;18423775;32;20059;-59
2023/07/18 09:36:18;;;;;;;5.93;3.47;;;;;;;25.86;77.04;98134.81;18437878;32;20060;-59
2023/07/18 09:46:22;;;;;;;5.22;2.95;;;;;;;25.35;81.64;98056.09;18436689;32;20097;-58
2023/07/18 09:56:27;;;;;;;3.72;2.30;;;;;;;25.16;82.75;98025.53;18435686;32;20049;-59
2023/07/18 10:06:33;;;;;;;6.70;2.78;;;;;;;24.89;67.88;97989.34;18435437;32;20061;-58
2023/07/18 10:16:40;;;;;;;4.97;2.80;;;;;;;25.04;79.97;97974.69;18414375;32;20057;-58
2023/07/18 10:26:48;;;;;;;8.40;3.33;;;;;;;26.10;74.48;97961.97;18434455;32;20053;-58
2023/07/18 10:36:59;;;;;;;5.32;2.90;;;;;;;24.47;78.72;98311.25;18420207;32;20117;-58
2023/07/18 10:47:17;;;;;;;5.43;2.78;;;;;;;22.97;100.00;98358.09;18367730;32;20109;-58
2023/07/18 10:57:32;;;;;;;4.50;2.92;;;;;;;21.87;100.00;98091.75;18368799;32;20113;-58
2023/07/18 11:07:36;;;;;;;4.75;2.65;;;;;;;21.00;100.00;98087.44;18363303;32;20441;-57
2023/07/18 11:17:41;;;;;;;4.18;3.28;;;;;;;20.95;100.00;98148.91;18365214;32;20335;-58
2023/07/18 11:27:49;;;;;;;3.70;2.20;;;;;;;22.45;100.00;98182.06;18366325;32;20401;-58
2023/07/18 11:37:53;;;;;;;2.83;2.00;;;;;;;22.53;100.00;98056.38;18368239;32;20098;-58
2023/07/18 11:48:00;;;;;;;3.50;1.80;;;;;;;23.13;100.00;97924.47;18430890;32;20053;-58
2023/07/18 11:58:07;;;;;;;4.47;2.90;;;;;;;24.58;100.00;97946.66;18417049;32;20515;-58
2023/07/18 12:08:13;;;;;;;5.22;3.33;;;;;;;25.29;100.00;97910.00;18430176;32;20442;-58
2023/07/18 12:18:18;;;;;;;5.32;3.22;;;;;;;26.20;100.00;97922.59;18432621;32;20049;-58
2023/07/18 12:28:21;;;;;;;6.78;3.42;;;;;;;27.50;99.72;97916.31;18427800;32;20091;-58
2023/07/18 12:38:24;;;;;;;6.55;3.40;;;;;;;27.97;98.42;97797.38;18440708;32;20050;-59
2023/07/18 12:48:31;;;;;;;5.93;3.65;;;;;;;28.10;91.73;97763.75;18440662;32;20062;-59
2023/07/18 12:58:34;;;;;;;6.55;4.30;;;;;;;28.32;100.00;97759.94;18433414;32;20057;-58
2023/07/18 13:08:38;;;;;;;7.07;4.05;;;;;;;28.99;86.46;97766.31;18412832;32;20347;-59
2023/07/18 13:18:42;;;;;;;4.10;3.47;;;;;;;29.80;90.30;97790.47;18438667;32;20053;-59
2023/07/18 13:28:45;;;;;;;5.30;3.67;;;;;;;30.49;74.35;97805.28;18436928;32;20060;-59
2023/07/18 13:38:48;;;;;;;4.85;3.80;;;;;;;31.20;75.23;97839.84;18437230;32;20093;-59
2023/07/18 13:48:52;;;;;;;5.32;3.85;;;;;;;31.99;63.56;97841.50;18423018;32;20161;-59
2023/07/18 13:58:55;;;;;;;4.80;3.80;;;;;;;32.54;57.82;97817.50;18436314;32;20468;-59
2023/07/18 14:08:58;;;;;;;6.03;4.10;;;;;;;33.13;54.33;97790.50;18421184;32;20056;-59
2023/07/18 14:19:02;;;;;;;4.75;3.70;;;;;;;33.70;47.93;97756.12;18420957;32;20056;-59
2023/07/18 14:29:05;;;;;;;4.75;3.83;;;;;;;34.28;45.65;97733.53;18434338;32;20383;-60
2023/07/18 14:39:08;;;;;;;5.15;3.55;;;;;;;35.13;42.87;97723.13;18433304;32;20046;-60
2023/07/18 14:49:11;;;;;;;4.15;3.55;;;;;;;35.13;41.42;97726.72;18426301;32;20101;-59
2023/07/18 14:59:15;;;;;;;5.70;4.28;;;;;;;34.81;45.49;97698.50;18418900;32;20057;-59
2023/07/18 15:09:24;;;;;;;4.75;4.00;;;;;;;33.43;44.70;97692.44;18432048;32;20091;-59
2023/07/18 15:19:27;;;;;;;6.53;4.37;;;;;;;32.37;45.07;97668.13;18431794;32;20045;-59
2023/07/18 15:29:30;;;;;;;5.18;4.07;;;;;;;32.02;48.14;97653.28;18431387;32;20046;-59
2023/07/18 15:39:33;;;;;;;6.10;4.47;;;;;;;31.60;50.06;97580.59;18416723;32;20053;-59
2023/07/18 15:49:36;;;;;;;4.57;4.03;;;;;;;31.38;48.55;97600.31;18417109;32;20061;-59
2023/07/18 15:59:40;;;;;;;4.35;3.55;;;;;;;30.76;52.20;97566.38;18441781;32;20057;-58
2023/07/18 16:09:51;;;;;;;5.97;4.18;;;;;;;30.27;50.45;97568.19;18442747;32;20091;-59
2023/07/18 16:19:56;;;;;;;7.90;4.07;;;;;;;29.98;56.37;97546.00;18442439;32;20432;-59
2023/07/18 16:29:59;;;;;;;6.03;4.28;;;;;;;29.75;55.50;97543.62;18441656;32;20049;-59
2023/07/18 16:40:05;;;;;;;6.57;4.28;;;;;;;29.60;56.68;97548.44;18426886;32;20049;-59
2023/07/18 16:50:08;;;;;;;5.53;4.10;;;;;;;29.48;59.71;97557.19;18440191;32;20399;-59
2023/07/18 17:00:12;;;;;;;5.10;3.92;;;;;;;29.64;61.06;97554.00;18425732;32;20358;-59
2023/07/18 17:10:16;;;;;;;5.80;4.05;;;;;;;30.39;59.64;97553.00;18438805;32;20335;-59
2023/07/18 17:20:19;;;;;;;4.60;3.92;;;;;;;29.84;64.44;97535.66;18438649;32;20080;-59
2023/07/18 17:30:30;;;;;;;4.78;4.12;;;;;;;29.13;67.07;97511.44;18437980;32;20432;-58
2023/07/18 17:40:34;;;;;;;6.28;4.43;;;;;;;28.78;71.48;97488.78;18437112;32;20060;-58
2023/07/18 17:50:38;;;;;;;5.30;3.85;;;;;;;28.42;86.35;97512.91;18436938;32;20376;-58
2023/07/18 18:00:40;;;;;;;4.65;3.47;;;;;;;27.87;91.99;97507.13;18435997;32;20065;-58
2023/07/18 18:10:45;;;;;;;5.53;4.37;;;;;;;27.53;99.93;97490.66;18435680;32;20056;-58
2023/07/18 18:20:48;;;;;;;5.50;4.32;;;;;;;27.47;100.00;97489.44;18407530;32;20088;-58
2023/07/18 18:30:51;;;;;;;5.30;3.58;;;;;;;27.10;100.00;97487.56;18413742;32;20467;-58
2023/07/18 18:40:54;;;;;;;5.25;3.75;;;;;;;26.67;97.96;97485.19;18433531;32;20044;-58
2023/07/18 18:50:58;;;;;;;6.22;3.83;;;;;;;26.24;97.02;97512.44;18419217;32;20041;-58
2023/07/18 19:01:02;;;;;;;5.87;3.62;;;;;;;25.80;100.00;97532.44;18433027;32;20073;-58
2023/07/18 19:11:06;;;;;;;4.53;3.70;;;;;;;25.19;100.00;97529.53;18432104;32;20060;-58
2023/07/18 19:21:10;;;;;;;6.80;3.90;;;;;;;24.72;100.00;97536.25;18431817;32;20075;-58
2023/07/18 19:31:13;;;;;;;6.37;3.22;;;;;;;24.24;100.00;97540.03;18416908;32;20361;-58
2023/07/18 19:41:16;;;;;;;3.75;3.30;;;;;;;23.82;100.00;97549.00;18417104;32;20053;-58
2023/07/18 19:51:20;;;;;;;9.13;3.92;;;;;;;23.45;100.00;97546.59;18430570;32;20161;-58
2023/07/18 20:01:23;;;;;;;8.05;3.67;;;;;;;23.05;100.00;97550.31;18430873;32;20124;-58
2023/07/18 20:11:27;;;;;;;4.00;3.00;;;;;;;22.74;100.00;97593.25;18430246;32;20064;-58
2023/07/18 20:21:30;;;;;;;8.15;3.50;;;;;;;22.40;100.00;97598.22;18423266;32;20057;-58
2023/07/18 20:31:33;;;;;;;6.57;3.42;;;;;;;22.08;100.00;97573.28;18429587;32;20076;-58
2023/07/18 20:41:36;;;;;;;5.30;3.25;;;;;;;21.83;100.00;97606.34;18434189;32;20071;-58
2023/07/18 20:51:41;;;;;;;5.78;3.45;;;;;;;21.61;100.00;97600.19;18440392;32;20080;-58
2023/07/18 21:01:44;;;;;;;8.68;5.10;;;;;;;21.46;100.00;97617.31;18440037;32;20165;-58
2023/07/18 21:11:47;;;;;;;;;;;;;;;21.23;100.00;97622.47;18433011;32;20441;-58
2023/07/18 21:21:50;;;;;;;7.20;5.68;;;;;;;21.03;100.00;97632.41;18439105;32;19991;-58
2023/07/18 21:31:53;;;;;;;19.37;12.65;;;;;;;20.82;100.00;97638.75;18424174;32;20053;-58
2023/07/18 21:41:57;;;;;;;25.25;13.55;;;;;;;20.65;100.00;97624.00;18423197;32;20098;-58
2023/07/18 21:52:00;;;;;;;9.18;5.80;;;;;;;20.44;100.00;97643.25;18435726;32;20104;-58
2023/07/18 22:02:03;;;;;;;6.10;3.92;;;;;;;20.26;100.00;97639.84;18436229;32;20388;-58
2023/07/18 22:12:06;;;;;;;5.22;3.85;;;;;;;20.08;100.00;97635.63;18421699;32;20068;-58
2023/07/18 22:22:10;;;;;;;7.57;3.92;;;;;;;19.90;100.00;97648.66;18434967;32;20061;-58
2023/07/18 22:32:12;;;;;;;7.07;4.13;;;;;;;19.74;100.00;97648.38;18434285;32;20053;-58
2023/07/18 22:42:17;;;;;;;5.40;4.20;;;;;;;19.61;100.00;97645.53;18433566;32;20072;-58
2023/07/18 22:52:20;;;;;;;5.00;3.70;;;;;;;19.49;100.00;97645.44;18419215;32;20480;-58
2023/07/18 23:02:23;;;;;;;5.50;3.60;;;;;;;19.33;100.00;97653.41;18425881;32;20076;-58
2023/07/18 23:12:26;;;;;;;5.27;3.37;;;;;;;19.20;100.00;97641.50;18432228;32;20390;-58
2023/07/18 23:22:29;;;;;;;4.93;4.05;;;;;;;19.06;100.00;97624.44;18431841;32;20072;-58
2023/07/18 23:32:32;;;;;;;4.93;3.60;;;;;;;18.95;100.00;97630.31;18431615;32;20454;-58
2023/07/18 23:42:36;;;;;;;5.30;3.50;;;;;;;18.83;100.00;97621.91;18417186;32;20075;-57
2023/07/18 23:52:39;;;;;;;5.77;3.63;;;;;;;18.70;100.00;97634.66;18417056;32;20046;-58
